Orgoglio — IJDQ — position and weather

sailwx.info

Track history (hours):
 
Tides and Currents Weather Stations Pressure Air Temp Water Temp Dewpoint Dewpoint Depression Visibility Wind Speed Wind Dir Waves Ship Positions

Orgoglio

Last reported at 2017-Nov-16 02:20 UTC. Time now 2017-Nov-23 00:26 UTC.
Position N 39°52' E 016°37'.

; draft 2 m.

Type: Fishing. MMSI: 247134150.

Date/timePositionNaut miles runAvg speedWind from/ knotsBaromVisibWave heightAir tempDewpointWater temp
2017-Nov-16 02:20N 39°52' E 016°37'4 8.8
2017-Nov-16 01:52N 39°56' E 016°39'2 5.1
2017-Nov-16 01:29N 39°58' E 016°40'0 0.7
2017-Nov-16 00:57N 39°58' E 016°40'1 2.6
2017-Nov-16 00:30N 39°57' E 016°40'1 2.5
2017-Nov-15 23:58N 39°56' E 016°40'1 2.4
2017-Nov-15 23:26N 39°55' E 016°39'1 2.6
2017-Nov-15 23:00N 39°54' E 016°38'2 2.5
2017-Nov-15 22:20N 39°53' E 016°37'2 3.1
2017-Nov-15 21:41N 39°51' E 016°35'7 0.2
2017-Nov-14 06:07N 39°54' E 016°43'0 1.2
2017-Nov-14 05:53N 39°54' E 016°42'1 2.6
2017-Nov-14 05:28N 39°53' E 016°41'  
2017-Nov-09 09:17N 39°52' E 016°41'1 2.8
2017-Nov-09 09:00N 39°52' E 016°41'3 0.8
2017-Nov-09 05:31N 39°55' E 016°41'0 1.0
2017-Nov-09 05:14N 39°54' E 016°40'1 2.6
2017-Nov-09 04:53N 39°54' E 016°39'1 2.6
2017-Nov-09 04:28N 39°53' E 016°39'5 2.7
2017-Nov-09 02:46N 39°50' E 016°34'11 0.7
2017-Nov-08 11:59N 39°40' E 016°31'15 2.7
2017-Nov-08 06:34N 39°53' E 016°39'1 2.6
2017-Nov-08 06:17N 39°54' E 016°39'1 3.2
2017-Nov-08 05:54N 39°55' E 016°40'1 1.9
2017-Nov-08 05:20N 39°54' E 016°39'1 2.7
2017-Nov-08 05:00N 39°53' E 016°38'1 0.0
2017-Nov-07 06:25N 39°53' E 016°38'  
Track history (hours):
 
Tides and Currents Weather Stations Pressure Air Temp Water Temp Dewpoint Dewpoint Depression Visibility Wind Speed Wind Dir Waves Ship Positions

Orgoglio

Last reported at 2017-Nov-16 02:20 UTC. Time now 2017-Nov-23 00:26 UTC.
Position N 39°52' E 016°37'.

; draft 2 m.

Type: Fishing. MMSI: 247134150.

Date/timePositionNaut miles runAvg speedWind from/ knotsBaromVisibWave heightAir tempDewpointWater temp
2017-Nov-16 02:20N 39°52' E 016°37'4 8.8
2017-Nov-16 01:52N 39°56' E 016°39'2 5.1
2017-Nov-16 01:29N 39°58' E 016°40'0 0.7
2017-Nov-16 00:57N 39°58' E 016°40'1 2.6
2017-Nov-16 00:30N 39°57' E 016°40'1 2.5
2017-Nov-15 23:58N 39°56' E 016°40'1 2.4
2017-Nov-15 23:26N 39°55' E 016°39'1 2.6
2017-Nov-15 23:00N 39°54' E 016°38'2 2.5
2017-Nov-15 22:20N 39°53' E 016°37'2 3.1
2017-Nov-15 21:41N 39°51' E 016°35'7 0.2
2017-Nov-14 06:07N 39°54' E 016°43'0 1.2
2017-Nov-14 05:53N 39°54' E 016°42'1 2.6
2017-Nov-14 05:28N 39°53' E 016°41'  
2017-Nov-09 09:17N 39°52' E 016°41'1 2.8
2017-Nov-09 09:00N 39°52' E 016°41'3 0.8
2017-Nov-09 05:31N 39°55' E 016°41'0 1.0
2017-Nov-09 05:14N 39°54' E 016°40'1 2.6
2017-Nov-09 04:53N 39°54' E 016°39'1 2.6
2017-Nov-09 04:28N 39°53' E 016°39'5 2.7
2017-Nov-09 02:46N 39°50' E 016°34'11 0.7
2017-Nov-08 11:59N 39°40' E 016°31'15 2.7
2017-Nov-08 06:34N 39°53' E 016°39'1 2.6
2017-Nov-08 06:17N 39°54' E 016°39'1 3.2
2017-Nov-08 05:54N 39°55' E 016°40'1 1.9
2017-Nov-08 05:20N 39°54' E 016°39'1 2.7
2017-Nov-08 05:00N 39°53' E 016°38'1 0.0
2017-Nov-07 06:25N 39°53' E 016°38'  

Dump ship's entire track history